sensor_id;sensor_type;location;lat;lon;timestamp;P1;durP1;ratioP1;P2;durP2;ratioP2
53505;SDS011;39388;50.936;6.848;2023-02-10T00:02:19;34.47;;;20.92;;
53505;SDS011;39388;50.936;6.848;2023-02-10T00:04:50;35.67;;;21.13;;
53505;SDS011;39388;50.936;6.848;2023-02-10T00:07:23;31.67;;;20.65;;
53505;SDS011;39388;50.936;6.848;2023-02-10T00:09:53;33.17;;;22.38;;
53505;SDS011;39388;50.936;6.848;2023-02-10T00:12:23;31.73;;;20.83;;
53505;SDS011;39388;50.936;6.848;2023-02-10T00:14:54;35.42;;;23.42;;
53505;SDS011;39388;50.936;6.848;2023-02-10T00:17:24;30.33;;;19.98;;
53505;SDS011;39388;50.936;6.848;2023-02-10T00:19:54;33.58;;;21.17;;
53505;SDS011;39388;50.936;6.848;2023-02-10T00:22:25;34.10;;;21.17;;
53505;SDS011;39388;50.936;6.848;2023-02-10T00:24:55;32.25;;;21.00;;
53505;SDS011;39388;50.936;6.848;2023-02-10T00:27:25;31.50;;;20.80;;
53505;SDS011;39388;50.936;6.848;2023-02-10T00:29:56;32.97;;;20.63;;
53505;SDS011;39388;50.936;6.848;2023-02-10T00:32:26;32.10;;;21.15;;
53505;SDS011;39388;50.936;6.848;2023-02-10T00:34:56;28.42;;;20.23;;
53505;SDS011;39388;50.936;6.848;2023-02-10T00:37:27;33.85;;;21.02;;
53505;SDS011;39388;50.936;6.848;2023-02-10T00:39:57;33.70;;;20.40;;
53505;SDS011;39388;50.936;6.848;2023-02-10T00:42:27;36.47;;;22.60;;
53505;SDS011;39388;50.936;6.848;2023-02-10T00:44:58;33.65;;;21.70;;
53505;SDS011;39388;50.936;6.848;2023-02-10T00:47:28;34.47;;;20.70;;
53505;SDS011;39388;50.936;6.848;2023-02-10T00:49:58;37.30;;;21.65;;
53505;SDS011;39388;50.936;6.848;2023-02-10T00:52:29;37.53;;;21.98;;
53505;SDS011;39388;50.936;6.848;2023-02-10T00:54:59;30.92;;;21.02;;
53505;SDS011;39388;50.936;6.848;2023-02-10T00:57:29;31.25;;;21.08;;
53505;SDS011;39388;50.936;6.848;2023-02-10T01:00:00;33.83;;;20.52;;
53505;SDS011;39388;50.936;6.848;2023-02-10T01:02:30;31.85;;;20.55;;
53505;SDS011;39388;50.936;6.848;2023-02-10T01:05:01;32.15;;;19.58;;
53505;SDS011;39388;50.936;6.848;2023-02-10T01:07:33;31.33;;;19.75;;
53505;SDS011;39388;50.936;6.848;2023-02-10T01:10:03;35.08;;;20.75;;
53505;SDS011;39388;50.936;6.848;2023-02-10T01:12:34;33.30;;;20.13;;
53505;SDS011;39388;50.936;6.848;2023-02-10T01:15:04;33.08;;;19.67;;
53505;SDS011;39388;50.936;6.848;2023-02-10T01:17:35;38.15;;;22.05;;
53505;SDS011;39388;50.936;6.848;2023-02-10T01:20:06;37.25;;;22.30;;
53505;SDS011;39388;50.936;6.848;2023-02-10T01:22:37;37.03;;;20.92;;
53505;SDS011;39388;50.936;6.848;2023-02-10T01:25:07;40.20;;;22.13;;
53505;SDS011;39388;50.936;6.848;2023-02-10T01:27:38;35.58;;;21.70;;
53505;SDS011;39388;50.936;6.848;2023-02-10T01:30:08;32.50;;;20.55;;
53505;SDS011;39388;50.936;6.848;2023-02-10T01:32:39;37.10;;;21.65;;
53505;SDS011;39388;50.936;6.848;2023-02-10T01:35:09;34.50;;;20.90;;
53505;SDS011;39388;50.936;6.848;2023-02-10T01:37:39;37.63;;;20.85;;
53505;SDS011;39388;50.936;6.848;2023-02-10T01:40:11;34.42;;;20.23;;
53505;SDS011;39388;50.936;6.848;2023-02-10T01:42:41;36.40;;;21.70;;
53505;SDS011;39388;50.936;6.848;2023-02-10T01:45:32;39.00;;;21.50;;
53505;SDS011;39388;50.936;6.848;2023-02-10T01:48:03;37.65;;;22.35;;
53505;SDS011;39388;50.936;6.848;2023-02-10T01:50:36;35.55;;;21.45;;
53505;SDS011;39388;50.936;6.848;2023-02-10T01:53:11;34.67;;;21.98;;
53505;SDS011;39388;50.936;6.848;2023-02-10T01:55:43;36.35;;;22.25;;
53505;SDS011;39388;50.936;6.848;2023-02-10T01:58:17;33.60;;;20.95;;
53505;SDS011;39388;50.936;6.848;2023-02-10T02:00:50;35.13;;;20.10;;
53505;SDS011;39388;50.936;6.848;2023-02-10T02:03:20;36.00;;;21.33;;
53505;SDS011;39388;50.936;6.848;2023-02-10T02:05:51;32.33;;;19.67;;
53505;SDS011;39388;50.936;6.848;2023-02-10T02:08:25;35.22;;;21.50;;
53505;SDS011;39388;50.936;6.848;2023-02-10T02:11:02;34.92;;;21.80;;
53505;SDS011;39388;50.936;6.848;2023-02-10T02:13:37;36.42;;;21.17;;
53505;SDS011;39388;50.936;6.848;2023-02-10T02:31:41;33.13;;;20.83;;
53505;SDS011;39388;50.936;6.848;2023-02-10T02:34:41;35.83;;;21.42;;
53505;SDS011;39388;50.936;6.848;2023-02-10T02:37:19;39.28;;;21.08;;
53505;SDS011;39388;50.936;6.848;2023-02-10T02:39:53;35.28;;;21.02;;
53505;SDS011;39388;50.936;6.848;2023-02-10T02:42:26;35.17;;;21.23;;
53505;SDS011;39388;50.936;6.848;2023-02-10T02:44:59;36.35;;;22.65;;
53505;SDS011;39388;50.936;6.848;2023-02-10T02:50:38;34.90;;;22.00;;
53505;SDS011;39388;50.936;6.848;2023-02-10T02:55:56;39.80;;;22.08;;
53505;SDS011;39388;50.936;6.848;2023-02-10T02:59:11;34.65;;;20.70;;
53505;SDS011;39388;50.936;6.848;2023-02-10T03:01:57;36.65;;;21.17;;
53505;SDS011;39388;50.936;6.848;2023-02-10T03:04:31;32.47;;;21.38;;
53505;SDS011;39388;50.936;6.848;2023-02-10T03:09:34;35.75;;;20.58;;
53505;SDS011;39388;50.936;6.848;2023-02-10T03:12:05;34.03;;;19.88;;
53505;SDS011;39388;50.936;6.848;2023-02-10T03:14:36;35.13;;;20.88;;
53505;SDS011;39388;50.936;6.848;2023-02-10T03:17:06;32.00;;;20.30;;
53505;SDS011;39388;50.936;6.848;2023-02-10T03:19:37;33.80;;;21.10;;
53505;SDS011;39388;50.936;6.848;2023-02-10T03:22:07;34.67;;;21.23;;
53505;SDS011;39388;50.936;6.848;2023-02-10T03:24:37;38.30;;;21.98;;
53505;SDS011;39388;50.936;6.848;2023-02-10T03:27:08;34.42;;;21.40;;
53505;SDS011;39388;50.936;6.848;2023-02-10T03:29:38;32.78;;;21.00;;
53505;SDS011;39388;50.936;6.848;2023-02-10T03:32:08;34.40;;;21.38;;
53505;SDS011;39388;50.936;6.848;2023-02-10T03:34:39;34.95;;;20.60;;
53505;SDS011;39388;50.936;6.848;2023-02-10T03:37:10;36.63;;;22.10;;
53505;SDS011;39388;50.936;6.848;2023-02-10T03:39:40;35.10;;;21.70;;
53505;SDS011;39388;50.936;6.848;2023-02-10T03:42:11;36.15;;;22.15;;
53505;SDS011;39388;50.936;6.848;2023-02-10T03:44:41;35.38;;;22.48;;
53505;SDS011;39388;50.936;6.848;2023-02-10T03:47:11;31.10;;;20.02;;
53505;SDS011;39388;50.936;6.848;2023-02-10T03:49:42;33.58;;;20.90;;
53505;SDS011;39388;50.936;6.848;2023-02-10T03:52:12;34.47;;;21.55;;
53505;SDS011;39388;50.936;6.848;2023-02-10T03:54:42;32.28;;;20.90;;
53505;SDS011;39388;50.936;6.848;2023-02-10T03:57:13;35.22;;;21.52;;
53505;SDS011;39388;50.936;6.848;2023-02-10T03:59:43;37.05;;;22.15;;
53505;SDS011;39388;50.936;6.848;2023-02-10T04:02:14;35.40;;;21.67;;
53505;SDS011;39388;50.936;6.848;2023-02-10T04:04:44;36.72;;;22.27;;
53505;SDS011;39388;50.936;6.848;2023-02-10T04:07:14;38.05;;;22.13;;
53505;SDS011;39388;50.936;6.848;2023-02-10T04:09:45;39.75;;;22.60;;
53505;SDS011;39388;50.936;6.848;2023-02-10T04:12:15;41.65;;;22.00;;
53505;SDS011;39388;50.936;6.848;2023-02-10T04:14:45;37.47;;;22.83;;
53505;SDS011;39388;50.936;6.848;2023-02-10T04:17:16;33.08;;;20.38;;
53505;SDS011;39388;50.936;6.848;2023-02-10T04:19:46;35.10;;;20.63;;
53505;SDS011;39388;50.936;6.848;2023-02-10T04:22:17;36.17;;;22.08;;
53505;SDS011;39388;50.936;6.848;2023-02-10T04:24:47;34.67;;;22.58;;
53505;SDS011;39388;50.936;6.848;2023-02-10T04:27:18;35.92;;;21.63;;
53505;SDS011;39388;50.936;6.848;2023-02-10T04:29:48;41.35;;;22.33;;
53505;SDS011;39388;50.936;6.848;2023-02-10T04:32:18;34.42;;;21.17;;
53505;SDS011;39388;50.936;6.848;2023-02-10T04:34:49;35.25;;;21.33;;
53505;SDS011;39388;50.936;6.848;2023-02-10T04:37:19;36.08;;;20.55;;
53505;SDS011;39388;50.936;6.848;2023-02-10T04:39:50;37.33;;;22.25;;
53505;SDS011;39388;50.936;6.848;2023-02-10T04:42:20;36.58;;;21.50;;
53505;SDS011;39388;50.936;6.848;2023-02-10T04:44:59;32.50;;;20.92;;
53505;SDS011;39388;50.936;6.848;2023-02-10T04:47:30;35.58;;;20.48;;
53505;SDS011;39388;50.936;6.848;2023-02-10T04:50:00;33.97;;;21.05;;
53505;SDS011;39388;50.936;6.848;2023-02-10T04:52:30;36.30;;;21.17;;
53505;SDS011;39388;50.936;6.848;2023-02-10T04:55:01;36.03;;;20.35;;
53505;SDS011;39388;50.936;6.848;2023-02-10T04:57:31;32.83;;;21.65;;
53505;SDS011;39388;50.936;6.848;2023-02-10T05:00:02;35.10;;;21.48;;
53505;SDS011;39388;50.936;6.848;2023-02-10T05:02:33;33.70;;;20.88;;
53505;SDS011;39388;50.936;6.848;2023-02-10T05:05:04;41.03;;;22.30;;
53505;SDS011;39388;50.936;6.848;2023-02-10T05:07:35;36.40;;;20.60;;
53505;SDS011;39388;50.936;6.848;2023-02-10T05:10:05;36.65;;;22.38;;
53505;SDS011;39388;50.936;6.848;2023-02-10T05:12:36;37.42;;;21.05;;
53505;SDS011;39388;50.936;6.848;2023-02-10T05:15:07;40.92;;;22.10;;
53505;SDS011;39388;50.936;6.848;2023-02-10T05:17:38;42.95;;;22.05;;
53505;SDS011;39388;50.936;6.848;2023-02-10T05:20:09;39.67;;;23.00;;
53505;SDS011;39388;50.936;6.848;2023-02-10T05:22:40;34.45;;;21.25;;
53505;SDS011;39388;50.936;6.848;2023-02-10T05:25:10;37.80;;;21.20;;
53505;SDS011;39388;50.936;6.848;2023-02-10T05:27:40;31.40;;;20.63;;
53505;SDS011;39388;50.936;6.848;2023-02-10T05:30:11;34.95;;;21.80;;
53505;SDS011;39388;50.936;6.848;2023-02-10T05:32:43;39.42;;;22.17;;
53505;SDS011;39388;50.936;6.848;2023-02-10T05:35:13;35.40;;;21.63;;
53505;SDS011;39388;50.936;6.848;2023-02-10T05:37:43;37.90;;;22.10;;
53505;SDS011;39388;50.936;6.848;2023-02-10T05:40:14;36.33;;;22.58;;
53505;SDS011;39388;50.936;6.848;2023-02-10T05:42:44;36.10;;;20.83;;
53505;SDS011;39388;50.936;6.848;2023-02-10T05:45:15;36.22;;;21.17;;
53505;SDS011;39388;50.936;6.848;2023-02-10T05:47:45;36.22;;;21.85;;
53505;SDS011;39388;50.936;6.848;2023-02-10T05:50:16;37.58;;;22.50;;
53505;SDS011;39388;50.936;6.848;2023-02-10T05:52:47;41.20;;;22.77;;
53505;SDS011;39388;50.936;6.848;2023-02-10T05:55:18;39.40;;;22.08;;
53505;SDS011;39388;50.936;6.848;2023-02-10T05:57:48;40.33;;;21.85;;
53505;SDS011;39388;50.936;6.848;2023-02-10T06:00:20;36.10;;;21.00;;
53505;SDS011;39388;50.936;6.848;2023-02-10T06:02:51;38.40;;;21.00;;
53505;SDS011;39388;50.936;6.848;2023-02-10T06:05:21;39.30;;;21.92;;
53505;SDS011;39388;50.936;6.848;2023-02-10T06:07:51;36.72;;;22.17;;
53505;SDS011;39388;50.936;6.848;2023-02-10T06:10:24;46.40;;;22.08;;
53505;SDS011;39388;50.936;6.848;2023-02-10T06:12:55;38.58;;;21.92;;
53505;SDS011;39388;50.936;6.848;2023-02-10T06:15:25;38.15;;;22.00;;
53505;SDS011;39388;50.936;6.848;2023-02-10T06:17:56;37.30;;;22.67;;
53505;SDS011;39388;50.936;6.848;2023-02-10T06:20:26;40.55;;;23.05;;
53505;SDS011;39388;50.936;6.848;2023-02-10T06:22:56;39.80;;;22.30;;
53505;SDS011;39388;50.936;6.848;2023-02-10T06:25:27;44.47;;;25.30;;
53505;SDS011;39388;50.936;6.848;2023-02-10T06:27:57;37.85;;;21.35;;
53505;SDS011;39388;50.936;6.848;2023-02-10T06:30:28;39.15;;;22.08;;
53505;SDS011;39388;50.936;6.848;2023-02-10T06:32:58;38.00;;;22.75;;
53505;SDS011;39388;50.936;6.848;2023-02-10T06:35:28;39.80;;;23.15;;
53505;SDS011;39388;50.936;6.848;2023-02-10T06:37:59;41.80;;;24.55;;
53505;SDS011;39388;50.936;6.848;2023-02-10T06:40:29;39.28;;;22.08;;
53505;SDS011;39388;50.936;6.848;2023-02-10T06:42:59;42.75;;;24.88;;
53505;SDS011;39388;50.936;6.848;2023-02-10T06:45:31;43.47;;;23.95;;
53505;SDS011;39388;50.936;6.848;2023-02-10T06:48:02;41.67;;;23.10;;
53505;SDS011;39388;50.936;6.848;2023-02-10T06:50:33;45.28;;;22.52;;
53505;SDS011;39388;50.936;6.848;2023-02-10T06:53:03;42.55;;;23.98;;
53505;SDS011;39388;50.936;6.848;2023-02-10T06:55:34;45.55;;;24.23;;
53505;SDS011;39388;50.936;6.848;2023-02-10T06:58:05;39.63;;;22.60;;
53505;SDS011;39388;50.936;6.848;2023-02-10T07:00:35;40.80;;;22.58;;
53505;SDS011;39388;50.936;6.848;2023-02-10T07:03:06;41.22;;;23.08;;
53505;SDS011;39388;50.936;6.848;2023-02-10T07:05:36;43.75;;;21.75;;
53505;SDS011;39388;50.936;6.848;2023-02-10T07:08:07;39.80;;;23.83;;
53505;SDS011;39388;50.936;6.848;2023-02-10T07:10:37;42.45;;;22.92;;
53505;SDS011;39388;50.936;6.848;2023-02-10T07:13:09;35.40;;;20.73;;
53505;SDS011;39388;50.936;6.848;2023-02-10T07:15:39;41.28;;;23.65;;
53505;SDS011;39388;50.936;6.848;2023-02-10T07:18:10;44.25;;;23.75;;
53505;SDS011;39388;50.936;6.848;2023-02-10T07:20:40;47.92;;;23.33;;
53505;SDS011;39388;50.936;6.848;2023-02-10T07:23:10;44.17;;;23.63;;
53505;SDS011;39388;50.936;6.848;2023-02-10T07:25:41;41.65;;;24.52;;
53505;SDS011;39388;50.936;6.848;2023-02-10T07:28:11;40.00;;;24.38;;
53505;SDS011;39388;50.936;6.848;2023-02-10T07:30:41;45.38;;;25.13;;
53505;SDS011;39388;50.936;6.848;2023-02-10T07:33:12;44.90;;;24.42;;
53505;SDS011;39388;50.936;6.848;2023-02-10T07:35:42;42.10;;;25.15;;
53505;SDS011;39388;50.936;6.848;2023-02-10T07:38:12;46.05;;;25.52;;
53505;SDS011;39388;50.936;6.848;2023-02-10T07:40:43;49.70;;;27.17;;
53505;SDS011;39388;50.936;6.848;2023-02-10T07:43:13;40.38;;;25.67;;
53505;SDS011;39388;50.936;6.848;2023-02-10T07:45:43;45.42;;;26.20;;
53505;SDS011;39388;50.936;6.848;2023-02-10T07:48:14;41.58;;;25.58;;
53505;SDS011;39388;50.936;6.848;2023-02-10T07:50:45;44.92;;;25.35;;
53505;SDS011;39388;50.936;6.848;2023-02-10T07:53:17;43.40;;;24.98;;
53505;SDS011;39388;50.936;6.848;2023-02-10T07:55:48;45.88;;;24.65;;
53505;SDS011;39388;50.936;6.848;2023-02-10T07:58:19;46.22;;;24.17;;
53505;SDS011;39388;50.936;6.848;2023-02-10T08:00:49;48.53;;;24.10;;
53505;SDS011;39388;50.936;6.848;2023-02-10T08:03:19;45.05;;;24.38;;
53505;SDS011;39388;50.936;6.848;2023-02-10T08:05:50;38.80;;;22.80;;
53505;SDS011;39388;50.936;6.848;2023-02-10T08:08:20;43.58;;;23.13;;
53505;SDS011;39388;50.936;6.848;2023-02-10T08:10:50;40.60;;;23.33;;
53505;SDS011;39388;50.936;6.848;2023-02-10T08:13:21;40.90;;;22.50;;
53505;SDS011;39388;50.936;6.848;2023-02-10T08:15:52;40.83;;;22.55;;
53505;SDS011;39388;50.936;6.848;2023-02-10T08:18:23;47.63;;;24.80;;
53505;SDS011;39388;50.936;6.848;2023-02-10T08:20:53;43.92;;;24.23;;
53505;SDS011;39388;50.936;6.848;2023-02-10T08:23:23;44.88;;;25.08;;
53505;SDS011;39388;50.936;6.848;2023-02-10T08:25:54;46.55;;;23.73;;
53505;SDS011;39388;50.936;6.848;2023-02-10T08:28:24;41.70;;;23.42;;
53505;SDS011;39388;50.936;6.848;2023-02-10T08:30:58;42.42;;;23.23;;
53505;SDS011;39388;50.936;6.848;2023-02-10T08:33:29;47.70;;;26.05;;
53505;SDS011;39388;50.936;6.848;2023-02-10T08:36:04;44.75;;;23.67;;
53505;SDS011;39388;50.936;6.848;2023-02-10T08:38:38;43.28;;;24.67;;
53505;SDS011;39388;50.936;6.848;2023-02-10T08:41:09;47.60;;;24.02;;
53505;SDS011;39388;50.936;6.848;2023-02-10T08:43:39;47.10;;;26.17;;
53505;SDS011;39388;50.936;6.848;2023-02-10T08:46:10;46.80;;;24.85;;
53505;SDS011;39388;50.936;6.848;2023-02-10T08:48:40;50.63;;;25.55;;
53505;SDS011;39388;50.936;6.848;2023-02-10T08:51:11;48.38;;;27.58;;
53505;SDS011;39388;50.936;6.848;2023-02-10T08:53:44;49.20;;;25.92;;
53505;SDS011;39388;50.936;6.848;2023-02-10T08:56:16;49.03;;;25.30;;
53505;SDS011;39388;50.936;6.848;2023-02-10T08:58:47;42.85;;;22.75;;
53505;SDS011;39388;50.936;6.848;2023-02-10T09:01:19;40.72;;;24.13;;
53505;SDS011;39388;50.936;6.848;2023-02-10T09:03:53;43.92;;;24.40;;
53505;SDS011;39388;50.936;6.848;2023-02-10T09:06:25;40.17;;;21.60;;
53505;SDS011;39388;50.936;6.848;2023-02-10T09:09:00;41.13;;;21.83;;
53505;SDS011;39388;50.936;6.848;2023-02-10T09:11:30;40.78;;;22.08;;
53505;SDS011;39388;50.936;6.848;2023-02-10T09:14:01;44.38;;;21.38;;
53505;SDS011;39388;50.936;6.848;2023-02-10T09:16:31;43.97;;;21.67;;
53505;SDS011;39388;50.936;6.848;2023-02-10T09:19:02;38.47;;;22.42;;
53505;SDS011;39388;50.936;6.848;2023-02-10T09:21:32;44.10;;;22.45;;
53505;SDS011;39388;50.936;6.848;2023-02-10T09:24:03;36.17;;;20.95;;
53505;SDS011;39388;50.936;6.848;2023-02-10T09:26:33;38.15;;;19.85;;
53505;SDS011;39388;50.936;6.848;2023-02-10T09:29:04;38.25;;;21.10;;
53505;SDS011;39388;50.936;6.848;2023-02-10T09:31:34;40.38;;;20.63;;
53505;SDS011;39388;50.936;6.848;2023-02-10T09:34:05;63.35;;;30.00;;
53505;SDS011;39388;50.936;6.848;2023-02-10T09:36:35;40.35;;;21.27;;
53505;SDS011;39388;50.936;6.848;2023-02-10T09:39:06;35.28;;;17.55;;
53505;SDS011;39388;50.936;6.848;2023-02-10T09:41:40;33.05;;;19.30;;
53505;SDS011;39388;50.936;6.848;2023-02-10T09:50:03;35.35;;;18.52;;
53505;SDS011;39388;50.936;6.848;2023-02-10T09:55:52;30.90;;;18.70;;
53505;SDS011;39388;50.936;6.848;2023-02-10T10:04:16;28.45;;;16.17;;
53505;SDS011;39388;50.936;6.848;2023-02-10T10:06:49;30.80;;;17.38;;
53505;SDS011;39388;50.936;6.848;2023-02-10T10:09:41;30.55;;;16.02;;
53505;SDS011;39388;50.936;6.848;2023-02-10T10:12:16;30.10;;;16.05;;
53505;SDS011;39388;50.936;6.848;2023-02-10T10:14:48;29.08;;;16.17;;
53505;SDS011;39388;50.936;6.848;2023-02-10T10:20:07;33.93;;;17.97;;
53505;SDS011;39388;50.936;6.848;2023-02-10T10:28:31;29.45;;;17.40;;
53505;SDS011;39388;50.936;6.848;2023-02-10T10:31:13;31.98;;;16.50;;
53505;SDS011;39388;50.936;6.848;2023-02-10T10:33:51;32.10;;;17.48;;
53505;SDS011;39388;50.936;6.848;2023-02-10T10:36:37;29.70;;;18.58;;
53505;SDS011;39388;50.936;6.848;2023-02-10T10:39:29;30.33;;;16.50;;
53505;SDS011;39388;50.936;6.848;2023-02-10T10:44:59;29.60;;;14.75;;
53505;SDS011;39388;50.936;6.848;2023-02-10T10:47:46;27.92;;;15.95;;
53505;SDS011;39388;50.936;6.848;2023-02-10T10:50:22;31.83;;;17.02;;
53505;SDS011;39388;50.936;6.848;2023-02-10T10:52:53;28.75;;;15.88;;
53505;SDS011;39388;50.936;6.848;2023-02-10T10:55:39;28.73;;;15.98;;
53505;SDS011;39388;50.936;6.848;2023-02-10T11:00:59;25.10;;;15.93;;
53505;SDS011;39388;50.936;6.848;2023-02-10T11:03:31;30.30;;;14.88;;
53505;SDS011;39388;50.936;6.848;2023-02-10T11:06:04;29.40;;;15.13;;
53505;SDS011;39388;50.936;6.848;2023-02-10T11:08:37;32.03;;;16.40;;
53505;SDS011;39388;50.936;6.848;2023-02-10T11:11:35;30.88;;;15.93;;
53505;SDS011;39388;50.936;6.848;2023-02-10T11:14:15;28.08;;;14.60;;
53505;SDS011;39388;50.936;6.848;2023-02-10T11:16:51;30.42;;;14.75;;
53505;SDS011;39388;50.936;6.848;2023-02-10T11:19:24;29.02;;;15.52;;
53505;SDS011;39388;50.936;6.848;2023-02-10T11:21:57;30.98;;;16.55;;
53505;SDS011;39388;50.936;6.848;2023-02-10T11:24:29;30.50;;;16.92;;
53505;SDS011;39388;50.936;6.848;2023-02-10T11:27:05;28.50;;;15.23;;
53505;SDS011;39388;50.936;6.848;2023-02-10T11:29:47;29.63;;;16.80;;
53505;SDS011;39388;50.936;6.848;2023-02-10T11:34:56;29.58;;;15.00;;
53505;SDS011;39388;50.936;6.848;2023-02-10T11:40:17;28.42;;;16.15;;
53505;SDS011;39388;50.936;6.848;2023-02-10T11:42:57;32.13;;;16.70;;
53505;SDS011;39388;50.936;6.848;2023-02-10T11:45:30;31.45;;;16.83;;
53505;SDS011;39388;50.936;6.848;2023-02-10T11:48:12;30.27;;;16.98;;
53505;SDS011;39388;50.936;6.848;2023-02-10T11:50:46;29.83;;;15.45;;
53505;SDS011;39388;50.936;6.848;2023-02-10T11:53:24;33.13;;;15.65;;
53505;SDS011;39388;50.936;6.848;2023-02-10T11:58:59;31.27;;;16.85;;
53505;SDS011;39388;50.936;6.848;2023-02-10T12:01:58;29.42;;;16.75;;
53505;SDS011;39388;50.936;6.848;2023-02-10T12:12:54;28.70;;;17.00;;
53505;SDS011;39388;50.936;6.848;2023-02-10T12:16:15;32.15;;;17.83;;
53505;SDS011;39388;50.936;6.848;2023-02-10T12:26:53;25.75;;;15.35;;
53505;SDS011;39388;50.936;6.848;2023-02-10T12:35:09;21.92;;;13.25;;
53505;SDS011;39388;50.936;6.848;2023-02-10T12:38:09;22.20;;;13.32;;
53505;SDS011;39388;50.936;6.848;2023-02-10T12:45:54;21.38;;;13.20;;
53505;SDS011;39388;50.936;6.848;2023-02-10T12:51:22;22.08;;;13.75;;
53505;SDS011;39388;50.936;6.848;2023-02-10T12:53:59;21.75;;;13.50;;
53505;SDS011;39388;50.936;6.848;2023-02-10T12:56:37;24.45;;;12.57;;
53505;SDS011;39388;50.936;6.848;2023-02-10T12:59:21;22.52;;;13.70;;
53505;SDS011;39388;50.936;6.848;2023-02-10T13:01:59;21.25;;;13.30;;
53505;SDS011;39388;50.936;6.848;2023-02-10T13:04:41;19.83;;;12.43;;
53505;SDS011;39388;50.936;6.848;2023-02-10T13:12:39;20.65;;;12.20;;
53505;SDS011;39388;50.936;6.848;2023-02-10T13:15:21;18.95;;;12.15;;
53505;SDS011;39388;50.936;6.848;2023-02-10T13:18:02;20.30;;;10.75;;
53505;SDS011;39388;50.936;6.848;2023-02-10T13:34:03;18.70;;;11.35;;
53505;SDS011;39388;50.936;6.848;2023-02-10T13:36:57;16.70;;;11.05;;
53505;SDS011;39388;50.936;6.848;2023-02-10T13:39:37;18.83;;;11.90;;
53505;SDS011;39388;50.936;6.848;2023-02-10T13:42:14;19.08;;;11.32;;
53505;SDS011;39388;50.936;6.848;2023-02-10T13:44:59;19.67;;;11.98;;
53505;SDS011;39388;50.936;6.848;2023-02-10T13:47:46;21.40;;;11.93;;
53505;SDS011;39388;50.936;6.848;2023-02-10T13:50:26;21.10;;;12.73;;
53505;SDS011;39388;50.936;6.848;2023-02-10T13:53:04;19.85;;;12.98;;
53505;SDS011;39388;50.936;6.848;2023-02-10T13:56:30;17.70;;;13.07;;
53505;SDS011;39388;50.936;6.848;2023-02-10T14:02:14;20.85;;;11.77;;
53505;SDS011;39388;50.936;6.848;2023-02-10T14:04:41;16.92;;;11.65;;
53505;SDS011;39388;50.936;6.848;2023-02-10T14:12:56;16.73;;;11.05;;
53505;SDS011;39388;50.936;6.848;2023-02-10T14:15:36;17.20;;;11.40;;
53505;SDS011;39388;50.936;6.848;2023-02-10T14:18:30;19.38;;;12.10;;
53505;SDS011;39388;50.936;6.848;2023-02-10T14:21:05;22.27;;;12.63;;
53505;SDS011;39388;50.936;6.848;2023-02-10T14:23:40;20.42;;;12.38;;
53505;SDS011;39388;50.936;6.848;2023-02-10T14:26:34;18.00;;;11.13;;
53505;SDS011;39388;50.936;6.848;2023-02-10T14:29:08;18.83;;;11.38;;
53505;SDS011;39388;50.936;6.848;2023-02-10T14:31:43;19.20;;;11.93;;
53505;SDS011;39388;50.936;6.848;2023-02-10T14:34:21;18.63;;;11.35;;
53505;SDS011;39388;50.936;6.848;2023-02-10T14:36:59;16.88;;;11.25;;
53505;SDS011;39388;50.936;6.848;2023-02-10T14:39:31;16.20;;;11.13;;
53505;SDS011;39388;50.936;6.848;2023-02-10T14:42:03;16.67;;;11.23;;
53505;SDS011;39388;50.936;6.848;2023-02-10T14:44:39;21.02;;;11.25;;
53505;SDS011;39388;50.936;6.848;2023-02-10T14:47:16;18.05;;;11.48;;
53505;SDS011;39388;50.936;6.848;2023-02-10T14:49:50;15.57;;;10.10;;
53505;SDS011;39388;50.936;6.848;2023-02-10T14:54:59;15.82;;;11.27;;
53505;SDS011;39388;50.936;6.848;2023-02-10T14:57:30;17.00;;;11.27;;
53505;SDS011;39388;50.936;6.848;2023-02-10T15:00:00;17.20;;;11.48;;
53505;SDS011;39388;50.936;6.848;2023-02-10T15:02:31;17.70;;;12.63;;
53505;SDS011;39388;50.936;6.848;2023-02-10T15:05:06;16.45;;;11.65;;
53505;SDS011;39388;50.936;6.848;2023-02-10T15:07:41;16.48;;;11.05;;
53505;SDS011;39388;50.936;6.848;2023-02-10T15:10:26;19.10;;;11.68;;
53505;SDS011;39388;50.936;6.848;2023-02-10T15:13:02;17.10;;;11.82;;
53505;SDS011;39388;50.936;6.848;2023-02-10T15:15:34;19.02;;;11.60;;
53505;SDS011;39388;50.936;6.848;2023-02-10T15:18:07;17.13;;;11.60;;
53505;SDS011;39388;50.936;6.848;2023-02-10T15:20:50;17.67;;;12.38;;
53505;SDS011;39388;50.936;6.848;2023-02-10T15:23:28;18.55;;;11.35;;
53505;SDS011;39388;50.936;6.848;2023-02-10T15:26:02;16.07;;;11.10;;
53505;SDS011;39388;50.936;6.848;2023-02-10T15:28:35;17.08;;;11.57;;
53505;SDS011;39388;50.936;6.848;2023-02-10T15:31:06;15.90;;;11.70;;
53505;SDS011;39388;50.936;6.848;2023-02-10T15:33:58;17.25;;;11.57;;
53505;SDS011;39388;50.936;6.848;2023-02-10T15:36:34;18.33;;;11.57;;
53505;SDS011;39388;50.936;6.848;2023-02-10T15:39:24;18.17;;;11.18;;
53505;SDS011;39388;50.936;6.848;2023-02-10T15:44:40;18.70;;;11.55;;
53505;SDS011;39388;50.936;6.848;2023-02-10T15:49:51;15.30;;;10.75;;
53505;SDS011;39388;50.936;6.848;2023-02-10T15:52:28;20.25;;;11.50;;
53505;SDS011;39388;50.936;6.848;2023-02-10T15:55:14;19.33;;;11.63;;
53505;SDS011;39388;50.936;6.848;2023-02-10T15:57:56;27.08;;;15.02;;
53505;SDS011;39388;50.936;6.848;2023-02-10T16:00:28;16.00;;;10.77;;
53505;SDS011;39388;50.936;6.848;2023-02-10T16:03:04;18.70;;;11.27;;
53505;SDS011;39388;50.936;6.848;2023-02-10T16:05:38;27.35;;;14.45;;
53505;SDS011;39388;50.936;6.848;2023-02-10T16:08:11;17.52;;;11.27;;
53505;SDS011;39388;50.936;6.848;2023-02-10T16:10:48;17.10;;;11.40;;
53505;SDS011;39388;50.936;6.848;2023-02-10T16:13:19;16.33;;;11.50;;
53505;SDS011;39388;50.936;6.848;2023-02-10T16:15:50;16.45;;;10.40;;
53505;SDS011;39388;50.936;6.848;2023-02-10T16:18:21;18.67;;;11.27;;
53505;SDS011;39388;50.936;6.848;2023-02-10T16:20:54;16.85;;;11.57;;
53505;SDS011;39388;50.936;6.848;2023-02-10T16:23:25;19.55;;;11.30;;
53505;SDS011;39388;50.936;6.848;2023-02-10T16:25:57;17.85;;;11.65;;
53505;SDS011;39388;50.936;6.848;2023-02-10T16:28:29;16.80;;;11.30;;
53505;SDS011;39388;50.936;6.848;2023-02-10T16:30:59;17.00;;;11.30;;
53505;SDS011;39388;50.936;6.848;2023-02-10T16:33:29;17.70;;;10.65;;
53505;SDS011;39388;50.936;6.848;2023-02-10T16:36:04;15.03;;;10.40;;
53505;SDS011;39388;50.936;6.848;2023-02-10T16:38:35;17.67;;;11.70;;
53505;SDS011;39388;50.936;6.848;2023-02-10T16:41:06;14.80;;;9.63;;
53505;SDS011;39388;50.936;6.848;2023-02-10T16:43:36;14.82;;;9.90;;
53505;SDS011;39388;50.936;6.848;2023-02-10T16:46:08;16.58;;;10.90;;
53505;SDS011;39388;50.936;6.848;2023-02-10T16:48:41;16.25;;;11.07;;
53505;SDS011;39388;50.936;6.848;2023-02-10T16:51:12;16.70;;;10.55;;
53505;SDS011;39388;50.936;6.848;2023-02-10T16:53:42;13.27;;;9.40;;
53505;SDS011;39388;50.936;6.848;2023-02-10T16:56:14;16.63;;;11.02;;
53505;SDS011;39388;50.936;6.848;2023-02-10T16:58:46;15.38;;;10.45;;
53505;SDS011;39388;50.936;6.848;2023-02-10T17:01:16;15.32;;;10.52;;
53505;SDS011;39388;50.936;6.848;2023-02-10T17:03:47;15.30;;;10.50;;
53505;SDS011;39388;50.936;6.848;2023-02-10T17:06:18;17.08;;;10.10;;